Time;durP1;ratioP1;P1;durP2;ratioP2;P2;SDS_P1;SDS_P2;PMS_P1;PMS_P2;Temp;Humidity;BMP_temperature;BMP_pressure;BME280_temperature;BME280_humidity;BME280_pressure;Samples;Min_cycle;Max_cycle;Signal;HPM_P1;HPM_P2
2022/04/06 00:02:57;;;;;;;6.83;5.80;;;;;;;10.70;91.65;98876.52;2898890;79;21606;-86
2022/04/06 00:06:59;;;;;;;7.72;7.03;;;;;;;10.77;91.31;98872.72;2902556;79;21019;-85
2022/04/06 00:11:00;;;;;;;10.00;8.30;;;;;;;10.76;91.45;98871.05;2901092;78;21043;-86
2022/04/06 00:15:04;;;;;;;9.30;8.03;;;;;;;10.78;91.58;98877.52;2918264;79;21023;-87
2022/04/06 00:19:05;;;;;;;9.75;8.38;;;;;;;10.82;91.82;98881.03;2908285;79;21088;-87
2022/04/06 00:23:09;;;;;;;8.83;7.97;;;;;;;10.85;91.62;98882.04;2901667;79;21032;-86
2022/04/06 00:27:10;;;;;;;11.85;9.20;;;;;;;10.83;91.35;98887.20;2895953;79;21015;-87
2022/04/06 00:31:13;;;;;;;12.07;10.60;;;;;;;10.86;91.22;98893.02;2896634;80;21007;-87
2022/04/06 00:35:31;;;;;;;10.80;9.80;;;;;;;10.87;90.85;98884.55;2914555;78;21559;-86
2022/04/06 00:39:32;;;;;;;9.73;8.05;;;;;;;10.91;90.71;98887.22;2908989;78;21149;-87
2022/04/06 00:43:34;;;;;;;9.20;8.23;;;;;;;10.89;90.53;98870.59;2884236;78;21136;-86
2022/04/06 00:47:35;;;;;;;13.22;10.78;;;;;;;10.90;90.28;98894.02;2910433;78;21090;-85
2022/04/06 00:51:38;;;;;;;10.98;9.25;;;;;;;10.93;90.08;98886.55;2900281;79;21099;-86
2022/04/06 00:59:57;;;;;;;10.70;9.20;;;;;;;10.96;90.02;98886.22;2765327;81;21151;-86
2022/04/06 01:03:58;;;;;;;14.03;9.35;;;;;;;10.88;90.23;98876.91;2843392;81;21020;-85
2022/04/06 01:08:01;;;;;;;10.13;9.13;;;;;;;10.90;90.89;98874.91;2843029;81;21028;-86
2022/04/06 01:12:03;;;;;;;10.30;9.18;;;;;;;10.89;91.40;98884.38;2797117;82;21026;-87
2022/04/06 01:16:05;;;;;;;17.10;8.90;;;;;;;10.84;91.85;98885.70;2822473;81;21072;-85
2022/04/06 01:20:10;;;;;;;10.85;9.60;;;;;;;10.83;91.92;98884.55;2799787;82;21016;-87
2022/04/06 01:24:11;;;;;;;10.50;9.48;;;;;;;10.78;92.17;98883.70;2824593;82;21064;-87
2022/04/06 01:28:12;;;;;;;11.53;9.83;;;;;;;10.80;92.67;98889.68;2791483;82;20988;-85
2022/04/06 01:32:25;;;;;;;10.40;8.58;;;;;;;10.84;92.72;98895.01;2815586;81;21051;-86
2022/04/06 01:36:26;;;;;;;11.53;7.80;;;;;;;10.82;92.80;98893.01;2793913;82;21042;-85
2022/04/06 01:40:28;;;;;;;9.30;8.33;;;;;;;10.81;92.62;98886.02;2816205;81;21029;-85
2022/04/06 01:44:31;;;;;;;9.83;8.23;;;;;;;10.81;92.35;98886.02;2820627;80;21540;-85
2022/04/06 01:48:32;;;;;;;8.20;7.40;;;;;;;10.81;92.31;98893.19;2842842;82;21059;-87
2022/04/06 01:52:34;;;;;;;7.95;7.15;;;;;;;10.78;92.07;98888.16;2789563;83;21025;-84
2022/04/06 01:56:36;;;;;;;7.67;6.15;;;;;;;10.80;91.91;98883.52;2806634;82;21591;-86
2022/04/06 02:00:37;;;;;;;7.87;6.58;;;;;;;10.82;91.98;98885.54;2811545;81;21507;-86
2022/04/06 02:04:41;;;;;;;8.75;6.85;;;;;;;10.80;92.23;98894.16;2832314;80;21013;-85
2022/04/06 02:08:43;;;;;;;7.25;6.35;;;;;;;10.80;92.27;98898.14;2812439;81;21078;-86
2022/04/06 02:12:45;;;;;;;7.05;5.67;;;;;;;10.79;92.28;98907.12;2780916;82;21560;-85
2022/04/06 02:16:46;;;;;;;4.65;4.25;;;;;;;10.81;92.39;98904.64;2782034;82;21057;-87
2022/04/06 02:20:48;;;;;;;4.53;3.90;;;;;;;10.86;92.24;98900.99;2837777;82;21005;-85
2022/04/06 02:24:49;;;;;;;6.80;5.83;;;;;;;10.84;92.55;98899.51;2768288;83;21027;-86
2022/04/06 02:28:51;;;;;;;5.72;5.22;;;;;;;10.84;92.52;98903.50;2722250;84;21068;-87
2022/04/06 02:32:53;;;;;;;8.53;7.28;;;;;;;10.78;93.01;98897.47;2775229;82;21015;-85
2022/04/06 02:36:54;;;;;;;6.90;6.15;;;;;;;10.77;92.84;98889.16;2702865;84;21196;-85
2022/04/06 02:40:56;;;;;;;6.60;6.00;;;;;;;10.71;92.75;98888.81;2811636;80;21773;-86
2022/04/06 02:44:57;;;;;;;6.35;5.70;;;;;;;10.70;92.78;98880.51;2789194;81;21711;-85
2022/04/06 02:48:59;;;;;;;5.67;5.10;;;;;;;10.73;92.84;98874.05;2810212;82;21171;-85
2022/04/06 02:53:00;;;;;;;6.92;6.22;;;;;;;10.70;93.06;98887.16;2810340;81;21125;-85
2022/04/06 02:57:03;;;;;;;10.63;8.28;;;;;;;10.74;93.32;98880.18;2726071;84;21080;-85
2022/04/06 03:01:04;;;;;;;11.43;9.68;;;;;;;10.71;94.03;98884.02;2795156;82;20997;-88
2022/04/06 03:05:07;;;;;;;9.68;8.00;;;;;;;10.71;94.18;98876.85;2784743;81;21089;-90
2022/04/06 03:09:08;;;;;;;8.00;7.17;;;;;;;10.76;93.98;98880.84;2819628;81;21531;-84
2022/04/06 03:13:10;;;;;;;10.68;9.28;;;;;;;10.78;93.79;98877.52;2806162;81;21040;-84
2022/04/06 03:17:15;;;;;;;10.25;9.15;;;;;;;10.83;93.92;98889.35;2809000;81;21593;-82
2022/04/06 03:21:15;;;;;;;10.68;9.48;;;;;;;10.90;93.85;98889.54;2828132;80;21036;-85
2022/04/06 03:25:16;;;;;;;9.93;8.65;;;;;;;10.81;94.35;98889.20;2784640;82;21110;-85
2022/04/06 03:29:18;;;;;;;11.70;9.55;;;;;;;10.78;95.50;98888.16;2789564;82;21019;-85
2022/04/06 03:33:19;;;;;;;11.28;8.13;;;;;;;10.78;96.21;98889.50;2824846;81;21532;-86
2022/04/06 03:37:21;;;;;;;8.30;7.20;;;;;;;10.78;96.27;98890.83;2809647;82;21022;-85
2022/04/06 03:41:22;;;;;;;9.95;7.62;;;;;;;10.76;96.60;98894.14;2816408;81;21031;-85
2022/04/06 03:45:24;;;;;;;9.30;8.35;;;;;;;10.75;96.29;98891.16;2797304;81;21000;-85
2022/04/06 03:49:26;;;;;;;8.95;8.05;;;;;;;10.74;96.24;98889.48;2811937;82;21024;-84
2022/04/06 03:53:27;;;;;;;8.55;7.65;;;;;;;10.71;96.36;98888.81;2796225;81;21584;-86
2022/04/06 03:57:29;;;;;;;7.05;6.35;;;;;;;10.76;96.35;98882.17;2800153;82;21635;-87
2022/04/06 04:01:31;;;;;;;6.53;5.87;;;;;;;10.75;95.76;98895.98;2840521;81;21020;-85
2022/04/06 04:05:33;;;;;;;5.75;4.70;;;;;;;10.71;95.34;98891.99;2792504;82;21545;-85
2022/04/06 04:09:36;;;;;;;7.37;5.58;;;;;;;10.67;95.75;98890.63;2803690;81;20998;-84
2022/04/06 04:13:37;;;;;;;6.70;5.50;;;;;;;10.69;95.49;98893.47;2806749;81;21116;-84
2022/04/06 04:17:39;;;;;;;5.30;4.75;;;;;;;10.75;95.47;98893.81;2842868;81;21154;-84
2022/04/06 04:21:40;;;;;;;9.53;7.00;;;;;;;10.77;95.37;98903.79;2813683;82;21119;-84
2022/04/06 04:25:41;;;;;;;8.15;6.62;;;;;;;10.79;94.86;98900.47;2720932;84;21126;-85
2022/04/06 04:29:43;;;;;;;5.55;4.80;;;;;;;10.76;94.52;98891.48;2718930;84;21202;-85
2022/04/06 04:33:45;;;;;;;7.72;5.92;;;;;;;10.77;94.56;98892.67;2722533;85;21804;-86
2022/04/06 04:37:46;;;;;;;4.37;3.98;;;;;;;10.72;94.76;98893.66;2715763;84;21110;-85
2022/04/06 04:41:49;;;;;;;5.62;3.80;;;;;;;10.78;94.83;98892.16;2775280;83;21158;-84
2022/04/06 04:45:50;;;;;;;5.28;4.78;;;;;;;10.79;94.34;98887.17;2829356;81;21599;-85
2022/04/06 04:49:52;;;;;;;5.17;4.58;;;;;;;10.83;93.91;98887.20;2810441;81;21012;-84
2022/04/06 04:53:54;;;;;;;5.35;4.80;;;;;;;10.88;93.84;98894.20;2796210;81;21080;-84
2022/04/06 04:57:56;;;;;;;5.70;5.10;;;;;;;10.91;93.91;98891.20;2835721;80;21020;-84
2022/04/06 05:01:58;;;;;;;5.58;3.60;;;;;;;10.96;93.67;98896.86;2809907;81;21035;-83
2022/04/06 05:05:59;;;;;;;4.28;3.25;;;;;;;10.97;93.63;98906.51;2771071;83;21000;-84
2022/04/06 05:10:01;;;;;;;3.52;3.12;;;;;;;11.00;92.90;98904.88;2715281;86;21616;-83
2022/04/06 05:14:03;;;;;;;7.40;4.53;;;;;;;11.07;93.39;98911.69;2798473;82;21039;-84
2022/04/06 05:18:05;;;;;;;5.03;4.28;;;;;;;11.08;92.55;98920.52;2802196;81;21016;-84
2022/04/06 05:22:07;;;;;;;3.30;3.00;;;;;;;11.06;92.09;98921.19;2792480;82;21059;-84
2022/04/06 05:26:08;;;;;;;7.72;3.25;;;;;;;11.05;91.92;98922.18;2806401;82;21543;-83
2022/04/06 05:30:12;;;;;;;3.65;3.35;;;;;;;10.94;92.07;98924.13;2814722;82;21544;-84
2022/04/06 05:34:14;;;;;;;4.17;2.22;;;;;;;10.96;91.83;98922.14;2820726;81;21013;-84
2022/04/06 05:38:15;;;;;;;8.03;4.40;;;;;;;11.00;91.79;98930.16;2805531;80;21080;-84
2022/04/06 05:42:17;;;;;;;4.87;4.03;;;;;;;11.09;91.91;98940.81;2814499;82;21040;-84
2022/04/06 05:46:18;;;;;;;5.45;4.95;;;;;;;11.06;91.33;98935.81;2829525;81;21002;-84
2022/04/06 05:50:20;;;;;;;6.20;5.10;;;;;;;11.17;90.81;98937.34;2802651;82;21107;-85
2022/04/06 05:54:21;;;;;;;6.78;5.53;;;;;;;11.26;90.50;98937.20;2722763;83;21521;-84
2022/04/06 05:58:23;;;;;;;7.30;6.35;;;;;;;11.32;89.96;98941.52;2829894;80;21067;-84
2022/04/06 06:02:24;;;;;;;8.30;7.50;;;;;;;11.36;90.44;98944.19;2806804;82;21065;-84
2022/04/06 06:06:26;;;;;;;7.00;6.35;;;;;;;11.39;89.90;98945.19;2820795;82;21128;-84
2022/04/06 06:10:27;;;;;;;10.20;8.45;;;;;;;11.43;89.85;98950.54;2757858;84;21059;-84
2022/04/06 06:14:29;;;;;;;8.60;7.37;;;;;;;11.46;89.57;98950.69;2820919;81;22316;-84
2022/04/06 06:18:30;;;;;;;9.43;8.48;;;;;;;11.50;90.22;98944.88;2848342;82;21088;-84
2022/04/06 06:22:33;;;;;;;11.85;9.03;;;;;;;11.53;89.88;98953.05;2804564;81;21145;-84
2022/04/06 06:26:39;;;;;;;10.32;9.33;;;;;;;11.51;90.07;98955.86;2840866;81;21055;-84
2022/04/06 06:30:40;;;;;;;8.43;7.62;;;;;;;11.54;90.23;98952.05;2809360;81;21567;-84
2022/04/06 06:34:42;;;;;;;13.00;9.63;;;;;;;11.63;90.87;98950.23;2816787;82;21058;-84
2022/04/06 06:38:43;;;;;;;13.00;10.68;;;;;;;11.79;90.79;98950.72;2813957;83;21048;-84
2022/04/06 06:42:45;;;;;;;9.38;8.53;;;;;;;11.81;90.23;98953.56;2807606;81;21011;-84
2022/04/06 06:46:47;;;;;;;12.75;9.43;;;;;;;11.93;90.08;98958.54;2855377;80;21015;-84
2022/04/06 06:50:49;;;;;;;7.30;6.47;;;;;;;12.03;90.29;98962.39;2813563;80;21169;-84
2022/04/06 06:54:50;;;;;;;6.33;5.60;;;;;;;12.09;89.96;98958.56;2841285;81;21017;-84
2022/04/06 06:58:52;;;;;;;6.37;5.42;;;;;;;12.12;88.88;98963.55;2846735;81;21071;-84
2022/04/06 07:02:53;;;;;;;6.78;5.17;;;;;;;12.12;88.04;98968.88;2810674;82;21006;-84
2022/04/06 07:06:55;;;;;;;10.95;6.70;;;;;;;12.16;88.72;98969.88;2802954;82;21025;-85
2022/04/06 07:10:57;;;;;;;7.15;5.53;;;;;;;12.14;89.04;98972.21;2808229;82;21048;-84
2022/04/06 07:14:59;;;;;;;6.75;6.05;;;;;;;12.08;88.54;98970.23;2838158;81;21046;-84
2022/04/06 07:19:00;;;;;;;8.05;5.87;;;;;;;12.20;88.16;98973.89;2825999;82;21632;-84
2022/04/06 07:23:03;;;;;;;8.78;7.92;;;;;;;12.16;87.16;98976.05;2792936;82;20981;-84
2022/04/06 07:27:05;;;;;;;11.05;8.95;;;;;;;12.20;87.61;98973.89;2814679;80;21113;-84
2022/04/06 07:31:06;;;;;;;10.25;9.03;;;;;;;12.22;86.72;98971.37;2820807;81;21114;-83
2022/04/06 07:35:08;;;;;;;10.65;9.05;;;;;;;12.23;86.19;98970.88;2823077;82;21154;-84
2022/04/06 07:39:10;;;;;;;11.03;9.03;;;;;;;12.26;85.83;98971.87;2813992;82;21124;-84
2022/04/06 07:43:11;;;;;;;13.05;10.30;;;;;;;12.30;85.75;98979.86;2808641;82;21107;-84
2022/04/06 07:47:13;;;;;;;10.35;9.03;;;;;;;12.32;86.47;98975.19;2813569;82;22291;-84
2022/04/06 07:51:14;;;;;;;15.20;11.95;;;;;;;12.27;85.39;98989.53;2816222;82;21587;-84
2022/04/06 07:55:16;;;;;;;19.35;15.78;;;;;;;12.18;88.79;98995.86;2813417;82;21148;-84
2022/04/06 07:59:18;;;;;;;18.27;15.48;;;;;;;12.05;90.41;98985.23;2824965;82;21104;-84
2022/04/06 08:03:19;;;;;;;17.40;13.62;;;;;;;11.92;91.60;98975.53;2846688;81;21106;-84
2022/04/06 08:07:20;;;;;;;13.48;11.63;;;;;;;11.90;91.66;98988.19;2828019;81;21107;-85
2022/04/06 08:11:22;;;;;;;14.93;12.05;;;;;;;11.82;92.98;98992.53;2833614;82;21107;-84
2022/04/06 08:15:23;;;;;;;16.12;11.40;;;;;;;11.72;91.25;98990.51;2846265;81;21029;-84
2022/04/06 08:19:26;;;;;;;16.32;13.18;;;;;;;11.80;92.82;99001.19;2834625;82;21015;-85
2022/04/06 08:23:27;;;;;;;15.68;12.68;;;;;;;11.76;93.99;99001.67;2831881;81;21098;-84
2022/04/06 08:27:31;;;;;;;15.38;12.23;;;;;;;11.78;94.94;99009.00;2807840;81;21008;-84
2022/04/06 08:31:32;;;;;;;18.40;13.72;;;;;;;11.84;95.12;98993.19;2824567;81;21031;-84
2022/04/06 08:35:34;;;;;;;15.88;12.73;;;;;;;12.03;94.69;99005.88;2828565;81;21116;-85
2022/04/06 08:39:36;;;;;;;15.60;12.05;;;;;;;12.40;94.68;98999.67;2808149;82;21586;-84
2022/04/06 08:43:37;;;;;;;16.95;14.55;;;;;;;12.53;93.83;99008.00;2792268;82;21040;-84
2022/04/06 08:47:41;;;;;;;18.50;16.00;;;;;;;12.63;90.60;98999.80;2793859;82;21074;-84
2022/04/06 08:51:45;;;;;;;16.67;14.63;;;;;;;12.77;89.73;98998.74;2787164;82;21022;-84
2022/04/06 08:55:47;;;;;;;40.67;28.90;;;;;;;12.70;90.71;99000.77;2798903;83;21049;-84
2022/04/06 08:59:49;;;;;;;18.17;16.02;;;;;;;12.81;89.77;99001.42;2801902;82;21023;-84
2022/04/06 09:03:50;;;;;;;31.33;20.97;;;;;;;12.79;89.38;99007.44;2831066;82;21003;-84
2022/04/06 09:07:51;;;;;;;15.75;13.15;;;;;;;12.81;89.89;99002.75;2835502;81;21038;-84
2022/04/06 09:11:53;;;;;;;15.50;12.33;;;;;;;13.06;88.68;99001.32;2811310;81;21557;-84
2022/04/06 09:16:01;;;;;;;17.90;14.03;;;;;;;13.46;88.37;98995.47;2822258;81;20973;-84
2022/04/06 09:20:04;;;;;;;14.83;13.30;;;;;;;13.90;86.51;98991.82;2823482;81;21548;-84
2022/04/06 09:24:17;;;;;;;12.25;11.00;;;;;;;14.14;82.25;98982.25;2831650;81;21003;-84
2022/04/06 09:28:19;;;;;;;7.72;6.58;;;;;;;14.22;81.82;98978.67;2833141;81;21012;-84
2022/04/06 09:32:20;;;;;;;13.43;7.45;;;;;;;14.23;79.33;98983.00;2823527;81;21118;-84
2022/04/06 09:36:22;;;;;;;9.45;6.60;;;;;;;14.02;74.73;98985.05;2746604;84;21414;-83
2022/04/06 09:40:28;;;;;;;6.37;5.75;;;;;;;13.83;75.54;98976.51;2779623;83;21036;-84
2022/04/06 09:48:57;;;;;;;11.57;6.62;;;;;;;13.75;77.63;98988.58;2826337;82;21069;-84
2022/04/06 09:52:59;;;;;;;6.90;6.15;;;;;;;13.73;76.74;98993.80;2822109;81;20980;-84
2022/04/06 09:57:02;;;;;;;3.90;3.45;;;;;;;13.70;78.17;99000.31;2819998;82;21467;-85
2022/04/06 10:01:04;;;;;;;8.23;4.78;;;;;;;13.46;78.86;98988.79;2851622;80;21034;-84
2022/04/06 10:05:07;;;;;;;5.42;4.65;;;;;;;13.40;79.77;98987.62;2840372;81;21049;-84
2022/04/06 10:09:11;;;;;;;7.45;6.22;;;;;;;13.50;79.45;98992.77;2831605;82;21073;-83
2022/04/06 10:13:13;;;;;;;8.30;6.12;;;;;;;13.84;80.62;98982.18;2808332;82;20989;-84
2022/04/06 10:17:16;;;;;;;7.72;6.50;;;;;;;14.19;78.87;98977.70;2785189;82;21039;-84
2022/04/06 10:21:28;;;;;;;8.30;6.95;;;;;;;14.41;75.74;98975.98;2823185;82;21067;-84
2022/04/06 10:25:44;;;;;;;7.10;6.47;;;;;;;14.67;75.65;98970.69;2828179;82;21124;-85
2022/04/06 10:30:09;;;;;;;7.92;7.12;;;;;;;14.80;74.73;98963.38;2834908;80;21032;-85
2022/04/06 10:34:28;;;;;;;9.43;6.50;;;;;;;14.93;71.16;98952.52;2789262;81;21059;-84
2022/04/06 10:38:29;;;;;;;7.80;7.05;;;;;;;15.04;72.31;98953.88;2787445;82;21054;-84
2022/04/06 10:42:36;;;;;;;12.82;6.80;;;;;;;15.14;70.64;98942.38;2845338;81;21065;-84
2022/04/06 10:46:41;;;;;;;6.60;5.53;;;;;;;15.14;70.42;98937.02;2816069;81;21038;-84
2022/04/06 10:50:45;;;;;;;8.28;7.35;;;;;;;15.05;69.50;98930.95;2826546;80;21034;-84
2022/04/06 10:54:46;;;;;;;8.48;6.87;;;;;;;14.98;71.92;98929.53;2847887;81;21084;-84
2022/04/06 10:59:02;;;;;;;9.15;6.12;;;;;;;14.73;70.33;98924.14;2828545;81;21078;-84
2022/04/06 11:03:19;;;;;;;6.78;5.22;;;;;;;14.56;72.29;98924.34;2815505;81;21016;-84
2022/04/06 11:12:26;;;;;;;7.53;6.33;;;;;;;14.42;72.18;98920.63;2806088;83;21092;-84
2022/04/06 11:16:46;;;;;;;7.47;5.85;;;;;;;14.50;71.23;98911.68;2833079;81;21544;-85
2022/04/06 11:20:47;;;;;;;10.30;6.20;;;;;;;14.61;71.08;98915.23;2850024;81;21573;-84
2022/04/06 11:24:49;;;;;;;6.60;6.05;;;;;;;14.88;70.91;98910.77;2812298;82;21063;-84
2022/04/06 11:29:01;;;;;;;11.05;6.20;;;;;;;15.09;69.74;98904.60;2860639;81;21000;-84
2022/04/06 11:33:04;;;;;;;5.40;4.85;;;;;;;15.38;70.52;98900.17;2809926;81;21029;-84
2022/04/06 11:37:08;;;;;;;4.35;4.05;;;;;;;15.67;70.08;98899.20;2781440;81;21080;-85
2022/04/06 11:41:10;;;;;;;5.03;4.08;;;;;;;15.88;63.82;98893.98;2818363;81;21041;-84
2022/04/06 11:45:11;;;;;;;4.20;3.80;;;;;;;15.94;64.61;98893.27;2830833;82;21069;-84
2022/04/06 11:49:13;;;;;;;3.30;3.00;;;;;;;16.04;64.72;98896.41;2839885;81;21040;-84
2022/04/06 11:53:18;;;;;;;5.10;4.20;;;;;;;16.09;63.41;98888.59;2799420;83;21000;-84
2022/04/06 11:57:20;;;;;;;4.45;4.10;;;;;;;16.12;62.91;98882.87;2794418;81;21048;-84
2022/04/06 12:01:28;;;;;;;5.10;4.62;;;;;;;16.04;64.19;98878.98;2806060;81;21006;-84
2022/04/06 12:05:25;;;;;;;3.98;3.62;;;;;;;15.95;64.71;98881.51;2798600;82;22635;-84
2022/04/06 12:09:31;;;;;;;6.05;5.10;;;;;;;15.74;63.69;98873.80;2756216;84;21130;-84
2022/04/06 12:13:37;;;;;;;5.80;4.57;;;;;;;15.69;65.20;98875.71;2719435;84;21558;-84
2022/04/06 12:17:39;;;;;;;5.90;5.00;;;;;;;15.71;64.90;98871.48;2716762;83;21073;-84
2022/04/06 12:21:44;;;;;;;7.75;5.58;;;;;;;15.72;64.92;98861.07;2762478;84;22290;-84
2022/04/06 12:25:46;;;;;;;6.97;3.67;;;;;;;16.10;66.20;98856.73;2744506;84;21047;-84
2022/04/06 12:30:08;;;;;;;5.53;4.78;;;;;;;16.22;62.18;98860.21;2755775;84;21027;-84
2022/04/06 12:34:34;;;;;;;7.90;3.98;;;;;;;16.45;65.02;98861.77;2770141;84;21003;-84
2022/04/06 12:38:37;;;;;;;4.33;3.93;;;;;;;16.42;61.94;98853.09;2675678;86;21547;-84
2022/04/06 12:42:39;;;;;;;3.80;3.47;;;;;;;16.70;64.98;98846.82;2843265;81;21068;-84
2022/04/06 12:46:45;;;;;;;4.33;3.77;;;;;;;16.76;61.31;98837.64;2816397;82;21533;-84
2022/04/06 12:50:47;;;;;;;3.80;3.40;;;;;;;16.70;60.77;98834.74;2857328;81;21065;-84
2022/04/06 12:54:52;;;;;;;4.40;3.92;;;;;;;16.62;60.82;98829.53;2801405;82;21054;-84
2022/04/06 12:59:10;;;;;;;3.70;3.40;;;;;;;16.60;61.10;98823.54;2799448;81;21036;-82
2022/04/06 13:03:12;;;;;;;4.10;3.80;;;;;;;16.40;59.67;98815.39;2823036;81;21109;-83
2022/04/06 13:07:13;;;;;;;5.30;4.78;;;;;;;16.25;62.32;98818.22;2861386;81;21622;-82
2022/04/06 13:11:15;;;;;;;3.30;3.00;;;;;;;16.11;63.21;98811.47;2826305;81;21048;-84
2022/04/06 13:15:17;;;;;;;4.45;3.98;;;;;;;15.98;61.95;98808.70;2808632;82;21457;-85
2022/04/06 13:19:18;;;;;;;4.33;3.87;;;;;;;15.95;62.19;98801.06;2820177;80;21003;-86
2022/04/06 13:23:20;;;;;;;4.80;3.83;;;;;;;16.07;62.92;98802.14;2756272;82;21520;-85
2022/04/06 13:27:24;;;;;;;4.05;2.42;;;;;;;16.19;62.34;98790.86;2751802;83;21001;-88
2022/04/06 13:31:27;;;;;;;3.60;2.42;;;;;;;16.23;60.78;98785.41;2791470;83;21593;-91
2022/04/06 13:35:28;;;;;;;3.27;2.75;;;;;;;16.17;59.86;98774.14;2794546;82;21038;-88
2022/04/06 13:39:30;;;;;;;2.62;2.15;;;;;;;16.20;61.08;98776.42;2795204;82;21089;-89
2022/04/06 13:43:31;;;;;;;3.72;1.90;;;;;;;16.27;60.82;98770.06;2729296;84;21574;-88
2022/04/06 13:47:33;;;;;;;2.90;2.60;;;;;;;16.28;60.36;98769.03;2709323;85;21041;-89
2022/04/06 13:51:36;;;;;;;4.42;2.70;;;;;;;16.44;61.53;98762.16;2757051;82;21578;-90
2022/04/06 13:55:37;;;;;;;4.47;3.08;;;;;;;16.47;59.37;98751.02;2800902;82;21020;-85
2022/04/06 13:59:38;;;;;;;3.80;3.50;;;;;;;16.45;61.74;98755.77;2813321;82;21006;-86
2022/04/06 14:03:40;;;;;;;2.85;2.42;;;;;;;16.48;60.74;98753.52;2783101;83;21045;-82
2022/04/06 14:07:41;;;;;;;4.12;2.60;;;;;;;16.52;59.40;98748.58;2795906;83;21041;-84
2022/04/06 14:11:43;;;;;;;4.12;2.58;;;;;;;16.54;58.00;98739.80;2785706;83;21020;-85
2022/04/06 14:15:45;;;;;;;3.47;3.17;;;;;;;16.62;57.33;98730.74;2776646;83;21040;-86
2022/04/06 14:19:46;;;;;;;2.95;2.65;;;;;;;16.58;57.50;98731.66;2720115;85;21422;-86
2022/04/06 14:23:47;;;;;;;6.70;4.03;;;;;;;16.51;60.41;98714.19;2733734;83;21011;-85
2022/04/06 14:27:49;;;;;;;3.08;2.50;;;;;;;16.53;60.62;98726.08;2703210;85;21614;-86
2022/04/06 14:31:50;;;;;;;3.22;2.58;;;;;;;16.42;58.21;98701.47;2694506;86;21673;-85
2022/04/06 14:35:52;;;;;;;5.95;2.60;;;;;;;16.38;58.58;98713.64;2765325;83;21070;-87
2022/04/06 14:39:53;;;;;;;3.17;2.25;;;;;;;16.40;57.83;98708.90;2820698;82;21008;-89
2022/04/06 14:43:55;;;;;;;4.15;3.02;;;;;;;16.31;57.33;98708.78;2805258;83;21514;-86
2022/04/06 14:47:56;;;;;;;6.08;2.92;;;;;;;16.37;59.85;98699.92;2784715;82;21112;-86
2022/04/06 14:51:58;;;;;;;2.37;2.17;;;;;;;16.24;56.90;98686.46;2778000;83;21042;-88
2022/04/06 14:55:59;;;;;;;3.40;3.08;;;;;;;16.30;59.26;98696.91;2760485;83;21076;-87
2022/04/06 15:00:01;;;;;;;3.58;2.30;;;;;;;16.32;59.05;98687.63;2797536;81;21032;-88
2022/04/06 15:04:02;;;;;;;3.55;2.58;;;;;;;16.37;57.81;98682.48;2792692;82;21037;-90
2022/04/06 15:08:14;;;;;;;3.95;3.25;;;;;;;16.31;56.96;98680.62;2804056;82;20997;-87
2022/04/06 15:12:13;;;;;;;3.10;2.77;;;;;;;16.19;57.36;98682.22;2802751;81;21168;-87
2022/04/06 15:16:15;;;;;;;2.42;2.10;;;;;;;16.20;58.07;98677.17;2719908;84;21551;-88
2022/04/06 15:20:18;;;;;;;4.00;3.12;;;;;;;16.20;59.21;98679.85;2738562;84;21041;-88
2022/04/06 15:24:20;;;;;;;3.55;3.08;;;;;;;16.22;58.24;98683.16;2732463;83;21481;-87
2022/04/06 15:28:22;;;;;;;2.42;2.22;;;;;;;16.12;56.77;98668.78;2748395;85;21060;-87
2022/04/06 15:32:23;;;;;;;3.17;2.90;;;;;;;16.12;56.89;98672.81;2780416;83;21034;-86
2022/04/06 15:40:44;;;;;;;2.65;2.45;;;;;;;16.32;56.65;98671.53;2720153;84;21048;-86
2022/04/06 15:44:46;;;;;;;3.37;2.87;;;;;;;16.37;56.52;98669.06;2718277;84;21045;-87
2022/04/06 15:48:47;;;;;;;3.55;2.92;;;;;;;16.36;56.40;98656.68;2732189;85;21033;-87
2022/04/06 15:52:49;;;;;;;3.75;2.72;;;;;;;16.34;57.63;98670.81;2759545;83;21028;-87
2022/04/06 15:56:50;;;;;;;4.85;2.30;;;;;;;16.37;57.96;98656.14;2800638;82;21020;-87
2022/04/06 16:00:52;;;;;;;4.25;2.90;;;;;;;16.41;57.93;98654.73;2813953;81;21017;-87
2022/04/06 16:04:53;;;;;;;5.08;4.40;;;;;;;16.34;57.10;98648.51;2815193;82;21087;-88
2022/04/06 16:08:55;;;;;;;4.00;3.22;;;;;;;16.22;57.22;98637.55;2831815;81;21085;-87
2022/04/06 16:12:56;;;;;;;3.02;2.72;;;;;;;16.12;57.60;98641.47;2715829;84;21031;-86
2022/04/06 16:16:58;;;;;;;10.55;4.95;;;;;;;15.99;58.65;98636.05;2709686;85;21030;-87
2022/04/06 16:20:59;;;;;;;6.30;4.20;;;;;;;15.95;59.07;98627.58;2708021;85;21112;-87
2022/04/06 16:25:02;;;;;;;5.70;4.15;;;;;;;15.88;58.62;98633.41;2772887;83;21054;-86
2022/04/06 16:29:04;;;;;;;4.40;3.75;;;;;;;15.73;58.47;98622.01;2785384;83;21090;-87
2022/04/06 16:33:06;;;;;;;5.10;3.42;;;;;;;15.66;59.74;98630.86;2786824;82;21065;-88
2022/04/06 16:37:07;;;;;;;5.00;3.10;;;;;;;15.67;60.26;98627.65;2832334;82;21017;-87
2022/04/06 16:41:10;;;;;;;4.20;2.77;;;;;;;15.54;59.56;98630.60;2723060;84;21040;-87
2022/04/06 16:45:11;;;;;;;3.27;2.98;;;;;;;15.49;60.25;98626.33;2833791;81;21013;-87
2022/04/06 16:49:13;;;;;;;5.58;3.77;;;;;;;15.41;60.19;98623.83;2802133;82;21668;-87
2022/04/06 16:53:15;;;;;;;4.47;3.35;;;;;;;15.32;60.92;98614.28;2804329;82;21649;-86
2022/04/06 16:57:20;;;;;;;3.95;2.45;;;;;;;15.16;60.81;98608.24;2811254;81;21107;-88
2022/04/06 17:01:20;;;;;;;5.65;4.08;;;;;;;14.98;60.18;98609.58;2833694;80;21527;-88
2022/04/06 17:05:23;;;;;;;9.18;5.78;;;;;;;14.86;61.13;98609.78;2796952;81;21567;-88
2022/04/06 17:09:25;;;;;;;6.75;5.58;;;;;;;14.74;61.64;98603.30;2806614;82;21032;-87
2022/04/06 17:13:26;;;;;;;8.25;5.85;;;;;;;14.62;62.51;98598.46;2790833;82;21551;-88
2022/04/06 17:17:28;;;;;;;9.73;7.37;;;;;;;14.49;63.20;98604.54;2731121;83;21110;-87
2022/04/06 17:21:30;;;;;;;8.13;5.42;;;;;;;14.34;64.10;98606.45;2765698;83;21019;-88
2022/04/06 17:25:31;;;;;;;9.68;6.30;;;;;;;14.16;64.50;98603.70;2779897;83;21048;-87
2022/04/06 17:29:33;;;;;;;23.10;14.45;;;;;;;13.94;64.66;98604.19;2811170;81;21060;-87
2022/04/06 17:33:37;;;;;;;30.23;18.42;;;;;;;13.75;65.46;98606.45;2815592;80;21021;-88
2022/04/06 17:37:39;;;;;;;53.95;28.20;;;;;;;13.66;65.19;98598.23;2785799;83;20980;-87
2022/04/06 17:41:40;;;;;;;40.12;23.85;;;;;;;13.55;65.57;98599.55;2790195;83;21076;-86
2022/04/06 17:45:42;;;;;;;21.42;14.43;;;;;;;13.46;65.67;98600.16;2795064;82;21012;-88
2022/04/06 17:49:44;;;;;;;13.98;9.03;;;;;;;13.40;65.72;98599.54;2801454;82;21057;-87
2022/04/06 17:53:46;;;;;;;14.47;9.20;;;;;;;13.33;66.03;98605.28;2715434;83;21019;-88
2022/04/06 17:57:47;;;;;;;9.75;7.00;;;;;;;13.19;66.40;98601.11;2803485;82;20977;-86
2022/04/06 18:01:49;;;;;;;13.25;9.88;;;;;;;13.13;66.31;98609.84;2804685;82;21081;-87
2022/04/06 18:05:52;;;;;;;20.95;16.37;;;;;;;12.98;67.17;98608.02;2814349;80;20982;-87
2022/04/06 18:09:53;;;;;;;33.80;24.52;;;;;;;12.91;67.14;98608.40;2806143;81;21110;-86
2022/04/06 18:13:55;;;;;;;27.85;19.45;;;;;;;12.84;67.40;98612.81;2779347;83;21166;-87
2022/04/06 18:17:56;;;;;;;21.37;15.72;;;;;;;12.68;68.05;98609.28;2777023;83;21106;-87
2022/04/06 18:21:58;;;;;;;30.85;19.37;;;;;;;12.64;67.84;98613.33;2795562;82;21110;-88
2022/04/06 18:26:01;;;;;;;52.83;37.85;;;;;;;12.53;68.11;98613.75;2803584;83;21645;-89
2022/04/06 18:30:03;;;;;;;84.65;52.35;;;;;;;12.27;69.45;98617.62;2767736;83;21085;-87
2022/04/06 18:34:05;;;;;;;101.90;58.55;;;;;;;12.07;70.64;98615.42;2805794;81;21038;-87
2022/04/06 18:38:06;;;;;;;67.05;37.58;;;;;;;11.86;71.24;98611.52;2835843;81;20984;-87
2022/04/06 18:42:08;;;;;;;37.10;22.00;;;;;;;11.73;71.48;98613.92;2845543;81;21582;-88
2022/04/06 18:46:10;;;;;;;25.08;17.42;;;;;;;11.74;71.74;98609.44;2814141;81;21026;-88
2022/04/06 18:50:11;;;;;;;25.62;16.15;;;;;;;11.80;71.36;98608.23;2811443;81;21028;-88
2022/04/06 18:54:15;;;;;;;35.92;23.30;;;;;;;11.79;71.78;98606.58;2815910;81;21614;-88
2022/04/06 18:58:17;;;;;;;27.32;15.72;;;;;;;11.83;71.62;98606.55;2788664;83;20994;-87
2022/04/06 19:02:20;;;;;;;23.55;14.15;;;;;;;11.79;72.12;98603.08;2794531;82;21026;-88
2022/04/06 19:06:22;;;;;;;20.30;13.35;;;;;;;11.72;71.93;98598.94;2774173;83;21182;-88
2022/04/06 19:10:24;;;;;;;15.32;11.25;;;;;;;11.75;71.18;98601.25;2790426;82;21137;-88
2022/04/06 19:14:25;;;;;;;23.55;15.80;;;;;;;11.79;70.90;98602.59;2792965;81;21197;-87